Check Out Time — WDH4242 — position and weather

sailwx.info

Track history (hours):
 
Tides and Currents Weather Stations Pressure Air Temp Water Temp Dewpoint Dewpoint Depression Visibility Wind Speed Wind Dir Waves Ship Positions

Check Out Time

Owner: Check Out Time LLC, The Woodlands, TX. More information available from US FCC via Universal Licensing System and Coast Guard Vessel Documentation Center.

Last reported at 2017-Oct-15 10:51 UTC. Time now 2017-Oct-17 02:21 UTC.
Position N 32°44' W 117°12'.

Length 22 m.

Type: Pleasure craft. MMSI: 367615660.

Date/timePositionNaut miles runAvg speedWind from/ knotsBaromVisibWave heightAir tempDewpointWater temp
2017-Oct-15 10:51N 32°44' W 117°12'0 0.0
2017-Oct-15 05:51N 32°44' W 117°12'0 0.0
2017-Oct-15 05:21N 32°44' W 117°12'0 0.0
2017-Oct-15 04:51N 32°44' W 117°12'0 0.0
2017-Oct-15 00:15N 32°44' W 117°12'0 0.0
2017-Oct-14 23:51N 32°44' W 117°12'  
2017-Oct-10 13:39N 32°44' W 117°12'  
2017-Oct-08 05:21N 32°44' W 117°12'0 0.0
2017-Oct-07 00:47N 32°44' W 117°13'312.2
2017-Oct-07 00:30N 32°40' W 117°14'815.7
2017-Oct-07 00:00N 32°33' W 117°16'713.7
2017-Oct-06 23:30N 32°26' W 117°19'713.3
2017-Oct-06 23:00N 32°20' W 117°20'9 6.5
2017-Oct-06 21:40N 32°11' W 117°20'0 0.5
2017-Oct-06 21:27N 32°11' W 117°20'6 2.3
2017-Oct-06 18:43N 32°17' W 117°16'1 2.5
2017-Oct-06 18:27N 32°16' W 117°17'3 6.6
2017-Oct-06 17:55N 32°20' W 117°18'4 7.1
2017-Oct-06 17:25N 32°23' W 117°19'2 5.0
2017-Oct-06 17:00N 32°25' W 117°20'710.8
2017-Oct-06 16:20N 32°32' W 117°18'614.3
2017-Oct-06 15:57N 32°37' W 117°15'7 0.7
2017-Oct-06 05:42N 32°44' W 117°12'0 0.0
2017-Oct-06 05:18N 32°44' W 117°12'0 0.0
2017-Oct-06 04:48N 32°44' W 117°12'  
Track history (hours):
 
Tides and Currents Weather Stations Pressure Air Temp Water Temp Dewpoint Dewpoint Depression Visibility Wind Speed Wind Dir Waves Ship Positions

Check Out Time

Owner: Check Out Time LLC, The Woodlands, TX. More information available from US FCC via Universal Licensing System and Coast Guard Vessel Documentation Center.

Last reported at 2017-Oct-15 10:51 UTC. Time now 2017-Oct-17 02:21 UTC.
Position N 32°44' W 117°12'.

Length 22 m.

Type: Pleasure craft. MMSI: 367615660.

Date/timePositionNaut miles runAvg speedWind from/ knotsBaromVisibWave heightAir tempDewpointWater temp
2017-Oct-15 10:51N 32°44' W 117°12'0 0.0
2017-Oct-15 05:51N 32°44' W 117°12'0 0.0
2017-Oct-15 05:21N 32°44' W 117°12'0 0.0
2017-Oct-15 04:51N 32°44' W 117°12'0 0.0
2017-Oct-15 00:15N 32°44' W 117°12'0 0.0
2017-Oct-14 23:51N 32°44' W 117°12'  
2017-Oct-10 13:39N 32°44' W 117°12'  
2017-Oct-08 05:21N 32°44' W 117°12'0 0.0
2017-Oct-07 00:47N 32°44' W 117°13'312.2
2017-Oct-07 00:30N 32°40' W 117°14'815.7
2017-Oct-07 00:00N 32°33' W 117°16'713.7
2017-Oct-06 23:30N 32°26' W 117°19'713.3
2017-Oct-06 23:00N 32°20' W 117°20'9 6.5
2017-Oct-06 21:40N 32°11' W 117°20'0 0.5
2017-Oct-06 21:27N 32°11' W 117°20'6 2.3
2017-Oct-06 18:43N 32°17' W 117°16'1 2.5
2017-Oct-06 18:27N 32°16' W 117°17'3 6.6
2017-Oct-06 17:55N 32°20' W 117°18'4 7.1
2017-Oct-06 17:25N 32°23' W 117°19'2 5.0
2017-Oct-06 17:00N 32°25' W 117°20'710.8
2017-Oct-06 16:20N 32°32' W 117°18'614.3
2017-Oct-06 15:57N 32°37' W 117°15'7 0.7
2017-Oct-06 05:42N 32°44' W 117°12'0 0.0
2017-Oct-06 05:18N 32°44' W 117°12'0 0.0
2017-Oct-06 04:48N 32°44' W 117°12'  

Dump ship's entire track history